Terminal Aerodrome Forecast
Issued by NWS

Home | Current Version | Previous Version | Text Only | Print | Product List | Glossary On
Versions: 1 2 3 4 5 6 7 8 9 10 11 12 13 14 15 16 17 18 19 20 21 22 23 24
092
FTUS46 KPDT 241120
TAFALW
TAF
KALW 241120Z 2412/2512 19012KT P6SM SCT060
     FM241900 21012KT P6SM SCT060 BKN200
     FM250100 16009KT P6SM FEW060
     FM250900 14006KT P6SM BKN200=

USA.gov is the U.S. government's official web portal to all federal, state and local government web resources and services.